FW2270 Weather Reports


Display with metric or nautical units.
time (UTC)temp
F
wind
direction
speed
MPH
gust
MPH
rain 1hr
in
rain 24hr
in
rain mn
in
humidity
%
barometer
mb
20200406041415 46 335 2.0 4.0 0.00 0.43 0.36 82 1006.8
20200406040414 46 328 2.0 3.0 0.00 0.43 0.36 81 1006.8
20200406035428 46 324 1.0 2.0 0.00 0.43 0.36 81 1006.8
20200406034424 47 324 1.0 4.0 0.00 0.43 0.36 81 1006.6
20200406033420 47 312 1.0 3.0 0.00 0.43 0.36 81 1006.4
20200406032420 47 321 0.0 2.0 0.00 0.43 0.36 80 1006.2
20200406031417 47 319 2.0 4.0 0.00 0.43 0.36 79 1006.2
20200406030411 47 300 2.0 4.0 0.00 0.43 0.36 79 1006.3
20200406025428 48 338 2.0 5.0 0.00 0.43 0.36 78 1006.1
20200406024422 48 319 3.0 6.0 0.00 0.43 0.36 77 1005.9
20200406023417 48 332 4.0 8.0 0.00 0.43 0.36 76 1005.7
20200406022432 49 326 5.0 10.0 0.00 0.43 0.36 75 1005.7
20200406021430 50 321 7.0 11.0 0.00 0.43 0.36 73 1005.7
20200406020426 50 323 7.0 11.0 0.00 0.43 0.36 72 1005.6
20200406015419 51 322 6.0 14.0 0.00 0.43 0.36 71 1005.7
20200406014417 51 294 5.0 11.0 0.00 0.43 0.36 69 1005.7
20200406013413 51 336 9.0 13.0 0.00 0.43 0.36 68 1005.7
20200406012428 52 315 6.0 13.0 0.00 0.43 0.36 68 1005.7
20200406011424 52 274 6.0 12.0 0.00 0.43 0.36 66 1005.7
20200406010423 52 300 6.0 11.0 0.00 0.43 0.36 64 1005.6
20200406005418 52 327 7.0 12.0 0.00 0.43 0.36 67 1005.5
20200406004412 52 331 5.0 15.0 0.00 0.43 0.36 66 1005.5
20200406003431 52 334 7.0 18.0 0.00 0.43 0.36 68 1005.3
20200406002425 53 329 6.0 12.0 0.00 0.43 0.36 69 1005.5
20200406001419 53 289 7.0 11.0 0.00 0.43 0.36 70 1005.6
20200406000417 53 275 9.0 14.0 0.00 0.43 0.36 67 1005.4
20200405235412 53 322 6.0 12.0 0.00 0.43 0.36 67 1005.4
20200405234429 53 305 7.0 15.0 0.00 0.43 0.36 66 1005.4
20200405233424 53 279 7.0 16.0 0.00 0.43 0.36 68 1005.3
20200405232425 53 317 6.0 13.0 0.00 0.43 0.36 70 1005.3
20200405231419 52 281 6.0 14.0 0.00 0.43 0.36 71 1005.4
20200405230416 52 325 4.0 8.0 0.00 0.43 0.36 76 1005.4
20200405225411 52 327 4.0 12.0 0.00 0.43 0.36 75 1005.5
20200405224425 53 311 4.0 12.0 0.00 0.43 0.36 74 1005.5
20200405223419 53 295 5.0 10.0 0.00 0.43 0.36 74 1005.4
20200405222413 53 305 6.0 9.0 0.00 0.43 0.36 71 1005.5
20200405063418 50 292 1.0 5.0 0.07 0.45 0.45 93 1007.6
20200405062414 50 333 0.0 0.0 0.03 0.41 0.41 92 1007.6
20200405061414 50 333 0.0 0.0 0.02 0.40 0.40 92 1007.6
20200405060430 50 333 0.0 0.0 0.01 0.39 0.39 92 1007.8
20200405055424 50 334 0.0 0.0 0.00 0.38 0.38 92 1007.9
20200405054417 50 360 0.0 1.0 0.00 0.38 0.38 92 1008.0
20200405053415 50 347 0.0 0.0 0.00 0.38 0.38 92 1007.9
20200405052429 50 346 0.0 0.0 0.00 0.38 0.38 91 1008.1
20200405051423 50 347 0.0 0.0 0.00 0.38 0.38 91 1008.2
20200405050421 51 347 0.0 0.0 0.00 0.38 0.38 91 1008.3
20200405045413 51 347 0.0 1.0 0.00 0.38 0.38 91 1008.4
20200405044427 51 347 0.0 1.0 0.00 0.38 0.38 91 1008.5
20200405043422 51 350 0.0 0.0 0.00 0.38 0.38 91 1008.5
20200405042422 51 350 0.0 1.0 0.00 0.38 0.38 91 1008.5